Time;durP1;ratioP1;P1;durP2;ratioP2;P2;SDS_P1;SDS_P2;PMS_P1;PMS_P2;Temp;Humidity;BMP_temperature;BMP_pressure;BME280_temperature;BME280_humidity;BME280_pressure;Samples;Min_cycle;Max_cycle;Signal;HPM_P1;HPM_P2
2023/10/22 00:01:18;;;;;;;27.77;13.43;;;;;;;7.92;100.00;100171.38;7370994;19;20523;-44
2023/10/22 00:03:49;;;;;;;10.40;4.20;;;;;;;7.94;100.00;100173.97;7398433;19;20779;-40
2023/10/22 00:06:19;;;;;;;17.03;6.10;;;;;;;7.90;100.00;100175.53;7373502;19;20434;-41
2023/10/22 00:08:52;;;;;;;21.57;9.20;;;;;;;7.90;100.00;100167.84;7396540;19;20396;-40
2023/10/22 00:11:21;;;;;;;13.17;6.10;;;;;;;7.93;100.00;100178.25;7373336;19;20542;-43
2023/10/22 00:13:51;;;;;;;8.53;5.27;;;;;;;7.96;100.00;100182.66;7396362;19;20491;-42
2023/10/22 00:16:20;;;;;;;24.73;10.10;;;;;;;7.96;100.00;100190.34;7372886;19;21019;-39
2023/10/22 00:18:50;;;;;;;16.40;6.50;;;;;;;7.96;100.00;100191.22;7397997;19;20396;-40
2023/10/22 00:21:20;;;;;;;11.37;5.20;;;;;;;7.94;100.00;100187.72;7371468;19;20455;-44
2023/10/22 00:23:52;;;;;;;13.67;5.87;;;;;;;7.84;100.00;100194.16;7395815;19;20428;-41
2023/10/22 00:26:21;;;;;;;14.20;7.97;;;;;;;7.86;100.00;100203.59;7372195;19;20977;-42
2023/10/22 00:28:51;;;;;;;5.60;3.50;;;;;;;7.90;100.00;100206.38;7395822;19;20404;-40
2023/10/22 00:31:21;;;;;;;14.87;7.33;;;;;;;7.85;100.00;100213.03;7371489;19;20530;-45
2023/10/22 00:33:50;;;;;;;9.10;3.40;;;;;;;7.87;100.00;100203.69;7395455;19;20400;-39
2023/10/22 00:36:20;;;;;;;6.40;4.43;;;;;;;7.86;100.00;100217.34;7372993;19;20440;-41
2023/10/22 00:38:52;;;;;;;33.13;13.43;;;;;;;7.92;100.00;100209.91;7395303;19;20404;-39
2023/10/22 00:41:22;;;;;;;15.70;7.40;;;;;;;7.97;100.00;100217.81;7369456;19;20454;-40
2023/10/22 00:43:51;;;;;;;8.17;4.20;;;;;;;7.89;100.00;100227.72;7398098;19;20403;-41
2023/10/22 00:46:24;;;;;;;8.50;4.17;;;;;;;7.96;100.00;100227.19;7372559;19;20427;-39
2023/10/22 00:48:55;;;;;;;6.00;3.30;;;;;;;7.93;100.00;100234.78;7396322;19;20482;-39
2023/10/22 00:51:25;;;;;;;6.43;3.40;;;;;;;7.88;100.00;100233.69;7371932;19;20476;-43
2023/10/22 00:53:58;;;;;;;8.30;3.90;;;;;;;7.82;100.00;100238.56;7395453;19;20919;-41
2023/10/22 00:56:28;;;;;;;20.73;7.30;;;;;;;7.79;100.00;100243.56;7373007;19;20436;-40
2023/10/22 00:58:57;;;;;;;5.83;2.70;;;;;;;7.75;100.00;100257.06;7397493;19;20407;-40
2023/10/22 01:01:27;;;;;;;75.43;30.00;;;;;;;7.76;100.00;100257.16;7369330;19;20462;-40
2023/10/22 01:03:57;;;;;;;8.70;4.00;;;;;;;7.75;100.00;100264.78;7395351;19;20399;-41
2023/10/22 01:06:27;;;;;;;9.70;3.80;;;;;;;7.82;100.00;100251.38;7368654;19;20416;-40
2023/10/22 01:09:00;;;;;;;8.27;4.03;;;;;;;7.87;100.00;100247.34;7392395;19;20834;-40
2023/10/22 01:11:30;;;;;;;17.30;6.90;;;;;;;7.80;100.00;100250.47;7370249;19;21010;-40
2023/10/22 01:14:00;;;;;;;9.67;4.93;;;;;;;7.80;100.00;100247.88;7394852;19;20429;-40
2023/10/22 01:16:29;;;;;;;9.23;4.33;;;;;;;7.78;100.00;100247.81;7371307;19;20423;-42
2023/10/22 01:18:59;;;;;;;29.83;12.30;;;;;;;7.77;100.00;100247.72;7396230;19;20516;-40
2023/10/22 01:21:31;;;;;;;18.60;5.97;;;;;;;7.72;100.00;100257.81;7366331;19;20476;-41
2023/10/22 01:24:03;;;;;;;8.23;4.07;;;;;;;7.71;100.00;100250.91;7392709;19;20403;-40
2023/10/22 01:26:33;;;;;;;6.07;3.37;;;;;;;7.69;100.00;100255.09;7371740;19;20433;-41
2023/10/22 01:29:02;;;;;;;13.30;4.73;;;;;;;7.69;100.00;100253.41;7392675;19;20967;-39
2023/10/22 01:31:32;;;;;;;13.43;5.17;;;;;;;7.65;100.00;100248.94;7369559;19;21069;-40
2023/10/22 01:34:01;;;;;;;128.27;44.27;;;;;;;7.66;100.00;100253.28;7394254;19;20471;-39
2023/10/22 01:36:31;;;;;;;8.73;3.50;;;;;;;7.77;100.00;100247.72;7371696;19;20782;-40
2023/10/22 01:39:04;;;;;;;10.83;4.93;;;;;;;7.74;100.00;100250.19;7393831;19;20482;-40
2023/10/22 01:41:33;;;;;;;8.50;4.00;;;;;;;7.66;100.00;100243.00;7369395;19;20484;-39
2023/10/22 01:44:03;;;;;;;10.07;4.43;;;;;;;7.67;100.00;100238.72;7392676;19;20476;-40
2023/10/22 01:46:33;;;;;;;23.87;10.03;;;;;;;7.63;100.00;100242.84;7370685;19;20418;-41
2023/10/22 01:49:03;;;;;;;41.63;15.03;;;;;;;7.67;100.00;100246.44;7391778;19;20495;-39
2023/10/22 01:51:32;;;;;;;9.47;3.33;;;;;;;7.62;100.00;100251.38;7369767;19;20527;-39
2023/10/22 01:54:06;;;;;;;8.17;3.87;;;;;;;7.59;100.00;100246.09;7391799;19;20753;-41
2023/10/22 01:56:36;;;;;;;23.80;10.70;;;;;;;7.60;100.00;100242.72;7371019;19;20423;-41
2023/10/22 01:59:05;;;;;;;22.93;9.13;;;;;;;7.55;100.00;100244.22;7391984;19;20403;-40
2023/10/22 02:01:35;;;;;;;8.03;3.43;;;;;;;7.52;100.00;100244.94;7371136;19;20545;-41
2023/10/22 02:04:05;;;;;;;10.03;4.10;;;;;;;7.57;100.00;100238.34;7398420;19;20407;-40
2023/10/22 02:06:35;;;;;;;8.13;3.70;;;;;;;7.52;100.00;100239.81;7378615;19;20443;-39
2023/10/22 02:09:08;;;;;;;9.17;3.63;;;;;;;7.51;100.00;100237.16;7397989;19;20422;-41
2023/10/22 02:11:38;;;;;;;3.63;2.50;;;;;;;7.47;100.00;100230.13;7374889;19;20451;-43
2023/10/22 02:14:08;;;;;;;3.90;2.90;;;;;;;7.50;100.00;100235.41;7398354;19;20407;-40
2023/10/22 02:16:37;;;;;;;22.73;8.77;;;;;;;7.52;100.00;100238.91;7376755;19;20493;-43
2023/10/22 02:19:07;;;;;;;20.70;8.93;;;;;;;7.52;100.00;100233.78;7401270;19;20403;-40
2023/10/22 02:21:37;;;;;;;4.87;2.60;;;;;;;7.50;100.00;100231.16;7376471;19;20455;-40
2023/10/22 02:24:10;;;;;;;6.70;2.53;;;;;;;7.58;100.00;100223.78;7401210;19;20410;-39
2023/10/22 02:26:39;;;;;;;14.27;5.63;;;;;;;7.57;100.00;100222.03;7376421;19;20430;-40
2023/10/22 02:29:09;;;;;;;28.97;11.27;;;;;;;7.62;100.00;100220.56;7397408;19;20411;-42
2023/10/22 02:31:38;;;;;;;8.90;4.13;;;;;;;7.62;100.00;100219.66;7374413;19;20455;-45
2023/10/22 02:34:10;;;;;;;6.63;3.03;;;;;;;7.55;100.00;100219.38;7402396;19;20847;-40
2023/10/22 02:36:40;;;;;;;14.63;6.50;;;;;;;7.59;100.00;100222.97;7376229;19;20435;-40
2023/10/22 02:39:12;;;;;;;12.93;5.10;;;;;;;7.60;100.00;100223.88;7397146;19;20423;-40
2023/10/22 02:41:42;;;;;;;6.63;2.63;;;;;;;7.64;100.00;100223.22;7373911;19;20929;-40
2023/10/22 02:44:14;;;;;;;5.70;2.63;;;;;;;7.53;100.00;100225.25;7398930;19;20785;-40
2023/10/22 02:46:44;;;;;;;18.03;7.90;;;;;;;7.61;100.00;100221.38;7377728;19;20427;-40
2023/10/22 02:49:14;;;;;;;12.97;3.80;;;;;;;7.63;100.00;100224.03;7397940;19;20491;-43
2023/10/22 02:51:44;;;;;;;34.83;14.77;;;;;;;7.62;100.00;100230.84;7374355;19;20466;-41
2023/10/22 02:54:16;;;;;;;9.93;4.30;;;;;;;7.64;100.00;100247.19;7397390;19;20414;-40
2023/10/22 02:56:46;;;;;;;4.47;2.70;;;;;;;7.61;100.00;100244.47;7377041;19;20415;-41
2023/10/22 02:59:16;;;;;;;5.17;2.70;;;;;;;7.62;100.00;100243.66;7397601;19;20776;-41
2023/10/22 03:01:45;;;;;;;34.00;13.87;;;;;;;7.65;100.00;100246.38;7374522;19;20477;-40
2023/10/22 03:04:15;;;;;;;11.80;4.80;;;;;;;7.64;100.00;100262.59;7396729;19;20411;-41
2023/10/22 03:06:45;;;;;;;5.30;2.73;;;;;;;7.63;100.00;100271.09;7375717;19;20438;-39
2023/10/22 03:09:17;;;;;;;5.43;2.20;;;;;;;7.64;100.00;100265.16;7396598;19;20415;-41
2023/10/22 03:11:47;;;;;;;9.03;3.10;;;;;;;7.61;100.00;100275.28;7373479;19;20455;-40
2023/10/22 03:14:20;;;;;;;5.73;3.03;;;;;;;7.63;100.00;100278.81;7397111;19;20411;-41
2023/10/22 03:16:50;;;;;;;7.37;2.40;;;;;;;7.59;100.00;100284.59;7376915;19;20490;-39
2023/10/22 03:19:19;;;;;;;8.20;2.60;;;;;;;7.57;100.00;100291.34;7399097;19;20471;-41
2023/10/22 03:21:49;;;;;;;19.03;7.70;;;;;;;7.60;100.00;100290.63;7373411;19;20526;-41
2023/10/22 03:24:22;;;;;;;7.73;3.70;;;;;;;7.63;100.00;100293.34;7396327;19;20958;-39
2023/10/22 03:26:52;;;;;;;7.07;3.83;;;;;;;7.61;100.00;100298.41;7375777;19;20447;-40
2023/10/22 03:29:22;;;;;;;8.37;2.93;;;;;;;7.55;100.00;100303.25;7397336;19;20430;-40
2023/10/22 03:31:52;;;;;;;4.00;2.40;;;;;;;7.57;100.00;100296.50;7374074;19;20463;-44
2023/10/22 03:34:21;;;;;;;4.23;2.60;;;;;;;7.62;100.00;100297.59;7398761;19;20410;-46
2023/10/22 03:36:51;;;;;;;5.63;2.47;;;;;;;7.59;100.00;100305.13;7375074;19;20419;-41
2023/10/22 03:39:23;;;;;;;4.83;2.07;;;;;;;7.54;100.00;100304.94;7396642;19;20418;-40
2023/10/22 03:41:52;;;;;;;5.13;2.50;;;;;;;7.58;100.00;100305.94;7371218;19;20459;-41
2023/10/22 03:44:22;;;;;;;24.57;10.17;;;;;;;7.61;100.00;100311.25;7398352;19;20421;-39
2023/10/22 03:46:52;;;;;;;8.03;2.50;;;;;;;7.62;100.00;100309.53;7375100;19;20511;-40
2023/10/22 03:49:21;;;;;;;10.40;5.33;;;;;;;7.61;100.00;100310.34;7396855;19;20402;-40
2023/10/22 03:51:51;;;;;;;5.60;2.63;;;;;;;7.54;100.00;100319.47;7372716;19;21017;-40
2023/10/22 03:54:23;;;;;;;5.53;2.40;;;;;;;7.56;100.00;100323.88;7398466;19;20405;-39
2023/10/22 03:56:53;;;;;;;21.03;7.30;;;;;;;7.60;100.00;100324.00;7375369;19;20471;-40
2023/10/22 03:59:22;;;;;;;7.27;2.60;;;;;;;7.57;100.00;100322.16;7395956;19;20496;-41
2023/10/22 04:01:54;;;;;;;14.43;6.47;;;;;;;7.59;100.00;100328.25;7372364;19;20472;-41
2023/10/22 04:04:24;;;;;;;4.50;2.57;;;;;;;7.59;100.00;100333.38;7395999;19;20407;-39
2023/10/22 04:06:54;;;;;;;14.90;5.63;;;;;;;7.59;100.00;100338.50;7374236;19;21198;-43
2023/10/22 04:09:26;;;;;;;3.93;2.17;;;;;;;7.59;100.00;100338.50;7396425;19;20479;-43
2023/10/22 04:11:57;;;;;;;4.13;2.17;;;;;;;7.63;100.00;100337.84;7372381;19;20483;-42
2023/10/22 04:14:26;;;;;;;5.77;2.57;;;;;;;7.63;100.00;100327.59;7395628;19;20411;-41
2023/10/22 04:16:56;;;;;;;10.00;4.37;;;;;;;7.59;100.00;100325.69;7373691;19;20427;-42
2023/10/22 04:19:26;;;;;;;13.80;5.80;;;;;;;7.61;100.00;100336.03;7397353;19;20403;-39
2023/10/22 04:21:56;;;;;;;4.70;2.70;;;;;;;7.56;100.00;100334.13;7373008;19;20858;-40
2023/10/22 04:24:28;;;;;;;7.03;2.40;;;;;;;7.52;100.00;100346.75;7393871;19;20399;-40
2023/10/22 04:26:57;;;;;;;3.97;2.10;;;;;;;7.53;100.00;100343.34;7373240;19;20426;-42
2023/10/22 04:29:27;;;;;;;10.70;2.40;;;;;;;7.51;100.00;100345.88;7394821;19;20418;-40
2023/10/22 04:31:56;;;;;;;4.57;1.93;;;;;;;7.49;100.00;100344.03;7371976;19;20460;-40
2023/10/22 04:34:26;;;;;;;17.70;5.40;;;;;;;7.49;100.00;100344.03;7388310;19;20474;-41
2023/10/22 04:36:56;;;;;;;5.60;2.17;;;;;;;7.50;100.00;100346.69;7371296;19;20454;-42
2023/10/22 04:39:28;;;;;;;4.70;1.80;;;;;;;7.50;100.00;100353.50;7393225;19;20411;-41
2023/10/22 04:41:57;;;;;;;3.97;1.97;;;;;;;7.48;100.00;100353.41;7369674;19;20427;-41
2023/10/22 04:44:27;;;;;;;4.90;2.23;;;;;;;7.50;100.00;100351.81;7393680;19;20459;-41
2023/10/22 04:46:56;;;;;;;2.67;1.73;;;;;;;7.46;100.00;100351.56;7370836;19;20419;-40
2023/10/22 04:49:26;;;;;;;5.50;2.20;;;;;;;7.46;100.00;100356.72;7393190;19;20407;-40
2023/10/22 04:51:56;;;;;;;5.93;2.43;;;;;;;7.41;100.00;100354.81;7370975;19;20453;-40
2023/10/22 04:54:28;;;;;;;4.97;1.80;;;;;;;7.44;100.00;100356.66;7392746;19;21113;-41
2023/10/22 04:56:58;;;;;;;6.03;2.80;;;;;;;7.44;100.00;100354.09;7371135;19;20994;-40
2023/10/22 04:59:27;;;;;;;6.30;1.93;;;;;;;7.46;100.00;100354.16;7394875;19;20432;-40
2023/10/22 05:01:57;;;;;;;6.50;2.23;;;;;;;7.45;100.00;100355.84;7369828;19;20426;-42
2023/10/22 05:04:27;;;;;;;8.70;2.50;;;;;;;7.42;100.00;100361.72;7392693;19;20458;-42
2023/10/22 05:06:57;;;;;;;3.90;1.70;;;;;;;7.41;100.00;100359.97;7370815;19;20435;-40
2023/10/22 05:09:29;;;;;;;16.23;4.90;;;;;;;7.42;100.00;100366.84;7392596;19;20396;-40
2023/10/22 05:11:59;;;;;;;4.33;2.30;;;;;;;7.39;100.00;100361.56;7370241;19;20771;-40
2023/10/22 05:14:29;;;;;;;7.53;2.80;;;;;;;7.45;100.00;100365.22;7392916;19;20451;-40
2023/10/22 05:16:58;;;;;;;5.77;2.10;;;;;;;7.41;100.00;100365.09;7370471;19;20431;-44
2023/10/22 05:19:28;;;;;;;3.87;2.30;;;;;;;7.42;100.00;100369.41;7394185;19;20776;-43
2023/10/22 05:21:58;;;;;;;6.97;2.40;;;;;;;7.41;100.00;100375.34;7369827;19;22174;-42
2023/10/22 05:24:30;;;;;;;4.60;2.10;;;;;;;7.41;100.00;100379.59;7392567;19;20447;-41
2023/10/22 05:27:00;;;;;;;12.63;4.70;;;;;;;7.44;100.00;100379.75;7370937;19;20436;-40
2023/10/22 05:29:29;;;;;;;10.50;4.47;;;;;;;7.47;100.00;100379.00;7392144;19;20424;-39
2023/10/22 05:31:59;;;;;;;11.23;2.10;;;;;;;7.51;100.00;100380.94;7369661;19;20779;-40
2023/10/22 05:34:29;;;;;;;8.13;3.00;;;;;;;7.49;100.00;100382.56;7391274;19;20439;-41
2023/10/22 05:36:59;;;;;;;4.97;1.60;;;;;;;7.52;100.00;100387.81;7366806;19;20997;-40
2023/10/22 05:39:31;;;;;;;4.53;1.87;;;;;;;7.53;100.00;100392.13;7392314;19;20408;-42
2023/10/22 05:42:01;;;;;;;4.60;2.20;;;;;;;7.52;100.00;100387.81;7368410;19;20511;-41
2023/10/22 05:44:30;;;;;;;4.47;2.20;;;;;;;7.55;100.00;100391.41;7391948;19;20458;-41
2023/10/22 05:47:00;;;;;;;3.30;2.00;;;;;;;7.52;100.00;100390.38;7369800;19;20439;-42
2023/10/22 05:49:29;;;;;;;5.00;2.00;;;;;;;7.50;100.00;100402.28;7391635;19;20419;-42
2023/10/22 05:52:00;;;;;;;7.30;1.83;;;;;;;7.51;100.00;100409.16;7369044;19;20427;-41
2023/10/22 05:54:33;;;;;;;3.80;1.90;;;;;;;7.46;100.00;100400.34;7392240;19;20454;-42
2023/10/22 05:57:02;;;;;;;3.73;1.97;;;;;;;7.44;100.00;100410.56;7369655;19;20466;-42
2023/10/22 05:59:32;;;;;;;8.10;3.30;;;;;;;7.42;100.00;100410.50;7391560;19;20452;-40
2023/10/22 06:02:02;;;;;;;4.10;2.20;;;;;;;7.42;100.00;100412.16;7368715;19;20505;-40
2023/10/22 06:04:31;;;;;;;9.80;2.50;;;;;;;7.46;100.00;100415.75;7391206;19;20439;-41
2023/10/22 06:07:01;;;;;;;5.37;2.37;;;;;;;7.43;100.00;100413.91;7369361;19;20422;-44
2023/10/22 06:09:33;;;;;;;10.40;3.70;;;;;;;7.47;100.00;100420.97;7393141;19;20427;-41
2023/10/22 06:12:04;;;;;;;5.03;2.30;;;;;;;7.43;100.00;100427.66;7367892;19;20435;-40
2023/10/22 06:14:35;;;;;;;9.30;2.80;;;;;;;7.39;100.00;100427.44;7391237;19;20459;-39
2023/10/22 06:17:05;;;;;;;8.27;2.40;;;;;;;7.37;100.00;100424.78;7368051;19;20502;-41
2023/10/22 06:19:34;;;;;;;7.40;2.70;;;;;;;7.35;100.00;100426.41;7391015;19;20403;-41
2023/10/22 06:22:04;;;;;;;20.77;3.00;;;;;;;7.36;100.00;100430.72;7366993;19;20439;-43
2023/10/22 06:24:36;;;;;;;3.20;1.70;;;;;;;7.36;100.00;100438.41;7391035;19;20454;-40
2023/10/22 06:27:06;;;;;;;7.50;2.47;;;;;;;7.33;100.00;100437.38;7368027;19;20431;-40
2023/10/22 06:29:36;;;;;;;8.97;3.97;;;;;;;7.40;100.00;100440.31;7390359;19;20502;-41
2023/10/22 06:32:06;;;;;;;6.90;3.23;;;;;;;7.46;100.00;100439.75;7366701;19;20420;-41
2023/10/22 06:34:36;;;;;;;10.97;4.70;;;;;;;7.49;100.00;100441.59;7390689;19;20522;-41
2023/10/22 06:37:06;;;;;;;6.27;3.03;;;;;;;7.47;100.00;100445.75;7368800;19;20483;-42
2023/10/22 06:39:38;;;;;;;6.37;3.10;;;;;;;7.54;100.00;100442.72;7390845;19;20407;-42
2023/10/22 06:42:08;;;;;;;30.80;11.67;;;;;;;7.62;100.00;100441.38;7365608;19;20970;-42
2023/10/22 06:44:41;;;;;;;38.57;15.23;;;;;;;7.69;100.00;100445.09;7390366;19;20451;-42
2023/10/22 06:47:11;;;;;;;22.10;7.10;;;;;;;7.75;100.00;100447.13;7369522;19;20985;-42
2023/10/22 06:49:40;;;;;;;12.87;4.80;;;;;;;7.77;100.00;100446.38;7400738;19;20487;-42
2023/10/22 06:52:10;;;;;;;18.57;8.33;;;;;;;7.82;100.00;100444.03;7374084;19;20548;-42
2023/10/22 06:54:42;;;;;;;7.73;3.67;;;;;;;7.83;100.00;100450.91;7398082;19;20527;-43
2023/10/22 06:57:12;;;;;;;6.30;1.70;;;;;;;7.86;100.00;100453.66;7374163;19;20425;-42
2023/10/22 06:59:41;;;;;;;7.23;2.90;;;;;;;7.94;100.00;100447.19;7397142;19;20731;-42
2023/10/22 07:02:11;;;;;;;5.23;2.57;;;;;;;8.04;100.00;100451.06;7372952;19;21106;-41
2023/10/22 07:04:41;;;;;;;4.33;2.13;;;;;;;8.10;100.00;100453.03;7396888;19;20443;-42
2023/10/22 07:07:10;;;;;;;7.20;2.20;;;;;;;8.17;100.00;100455.09;7373998;19;21039;-42
2023/10/22 07:09:42;;;;;;;10.50;2.37;;;;;;;8.27;100.00;100458.09;7396301;19;20967;-42
2023/10/22 07:12:12;;;;;;;5.93;2.03;;;;;;;8.28;100.00;100447.00;7373774;19;20514;-42
2023/10/22 07:14:42;;;;;;;10.70;3.87;;;;;;;8.31;100.00;100460.00;7396617;19;20447;-41
2023/10/22 07:17:12;;;;;;;4.20;1.80;;;;;;;8.35;100.00;100454.16;7373813;19;20435;-41
2023/10/22 07:19:41;;;;;;;7.57;1.90;;;;;;;8.39;100.00;100453.50;7392347;19;20416;-42
2023/10/22 07:22:11;;;;;;;3.23;1.50;;;;;;;8.36;100.00;100448.25;7372883;19;20419;-42
2023/10/22 07:24:45;;;;;;;6.13;1.47;;;;;;;8.36;100.00;100443.97;7396941;19;20451;-42
2023/10/22 07:27:15;;;;;;;5.97;1.97;;;;;;;8.34;100.00;100447.28;7374098;19;20429;-42
2023/10/22 07:29:44;;;;;;;5.90;2.53;;;;;;;8.36;100.00;100448.25;7398792;19;20411;-44
2023/10/22 07:32:14;;;;;;;11.60;4.67;;;;;;;8.37;100.00;100443.16;7370598;19;20555;-42
2023/10/22 07:34:44;;;;;;;5.10;2.70;;;;;;;8.42;100.00;100445.97;7395387;19;21410;-41
2023/10/22 07:37:14;;;;;;;6.03;1.90;;;;;;;8.41;100.00;100436.47;7373734;19;20440;-40
2023/10/22 07:39:46;;;;;;;7.03;2.67;;;;;;;8.47;100.00;100435.88;7395719;19;20769;-41
2023/10/22 07:42:15;;;;;;;5.93;2.07;;;;;;;8.53;100.00;100436.19;7371516;19;20427;-44
2023/10/22 07:44:45;;;;;;;7.90;1.90;;;;;;;8.56;100.00;100431.16;7395830;19;20439;-42
2023/10/22 07:47:15;;;;;;;4.23;1.93;;;;;;;8.59;100.00;100430.41;7372607;19;20453;-41
2023/10/22 07:49:44;;;;;;;3.83;1.50;;;;;;;8.62;100.00;100422.84;7397913;19;20765;-41
2023/10/22 07:52:14;;;;;;;7.43;2.30;;;;;;;8.68;100.00;100420.56;7370478;19;20431;-42
2023/10/22 07:54:47;;;;;;;5.50;1.93;;;;;;;8.74;100.00;100409.66;7395663;19;20447;-42
2023/10/22 07:57:16;;;;;;;12.33;5.10;;;;;;;8.77;100.00;100404.66;7373117;19;20494;-42
2023/10/22 07:59:46;;;;;;;9.27;3.43;;;;;;;8.82;100.00;100391.97;7393439;19;20411;-42
2023/10/22 08:02:16;;;;;;;27.93;11.00;;;;;;;8.89;100.00;100386.28;7366322;19;20998;-42
2023/10/22 08:04:45;;;;;;;8.30;2.40;;;;;;;8.89;100.00;100370.84;7395434;19;20526;-42
2023/10/22 08:07:17;;;;;;;3.60;2.20;;;;;;;8.94;100.00;100383.91;7373072;19;20471;-42
2023/10/22 08:09:50;;;;;;;10.33;1.70;;;;;;;8.97;100.00;100386.63;7397473;19;20413;-43
2023/10/22 08:12:19;;;;;;;3.57;1.70;;;;;;;9.01;100.00;100384.22;7368747;19;20498;-41
2023/10/22 08:14:49;;;;;;;6.30;1.83;;;;;;;8.99;100.00;100383.28;7392276;19;20890;-41
2023/10/22 08:17:18;;;;;;;4.33;1.67;;;;;;;9.00;100.00;100371.28;7370778;19;20457;-41
2023/10/22 08:19:48;;;;;;;7.20;2.53;;;;;;;9.04;100.00;100370.63;7392560;19;20483;-41
2023/10/22 08:22:18;;;;;;;15.23;6.07;;;;;;;9.12;100.00;100391.53;7371419;19;21126;-40
2023/10/22 08:24:51;;;;;;;6.30;2.90;;;;;;;9.17;100.00;100395.16;7394066;19;20446;-42
2023/10/22 08:27:21;;;;;;;3.33;1.30;;;;;;;9.18;100.00;100384.94;7370424;19;20969;-42
2023/10/22 08:29:51;;;;;;;10.67;3.77;;;;;;;9.28;100.00;100383.59;7393060;19;20458;-40
2023/10/22 08:32:21;;;;;;;6.37;2.60;;;;;;;9.25;100.00;100378.34;7370696;19;20498;-44
2023/10/22 08:34:50;;;;;;;3.97;2.03;;;;;;;9.28;100.00;100383.59;7394912;19;20526;-41
2023/10/22 08:37:20;;;;;;;11.03;4.00;;;;;;;9.34;100.00;100384.69;7369175;19;20504;-42
2023/10/22 08:39:52;;;;;;;7.70;1.80;;;;;;;9.38;100.00;100386.56;7395099;19;20965;-40
2023/10/22 08:42:26;;;;;;;9.80;2.80;;;;;;;9.34;100.00;100376.97;7367426;19;20510;-40
2023/10/22 08:44:56;;;;;;;5.40;2.10;;;;;;;9.42;100.00;100376.44;7394508;19;20447;-42
2023/10/22 08:47:25;;;;;;;7.00;3.50;;;;;;;9.54;100.00;100378.63;7371711;19;20427;-42
2023/10/22 08:49:57;;;;;;;3.60;1.60;;;;;;;9.57;100.00;100365.88;7394604;19;20947;-42
2023/10/22 08:52:27;;;;;;;8.40;2.33;;;;;;;9.62;100.00;100354.88;7369765;19;20465;-43
2023/10/22 08:55:01;;;;;;;4.67;1.43;;;;;;;9.65;100.00;100336.97;7391160;19;21015;-42
2023/10/22 08:57:31;;;;;;;5.87;2.63;;;;;;;9.72;100.00;100332.13;7371542;19;20435;-42
2023/10/22 09:00:00;;;;;;;3.40;1.43;;;;;;;9.77;100.00;100322.00;7394083;19;20403;-42
2023/10/22 09:02:30;;;;;;;4.13;1.77;;;;;;;9.80;100.00;100306.63;7370113;19;20434;-41
2023/10/22 09:04:59;;;;;;;8.70;2.77;;;;;;;9.84;100.00;100300.78;7393688;19;20447;-41
2023/10/22 09:07:56;;;;;;;6.00;1.97;;;;;;;9.86;100.00;100293.97;7371268;19;20443;-41
2023/10/22 09:10:31;;;;;;;2.87;1.43;;;;;;;9.90;100.00;100287.22;7370502;19;20403;-40
2023/10/22 09:13:15;;;;;;;6.17;1.50;;;;;;;9.93;100.00;100283.91;7392975;19;20413;-39
2023/10/22 09:15:46;;;;;;;3.63;2.07;;;;;;;9.98;100.00;100284.94;7368429;19;20430;-41
2023/10/22 09:18:17;;;;;;;3.30;1.73;;;;;;;10.01;100.00;100277.34;7389997;19;20418;-42
2023/10/22 09:20:48;;;;;;;4.57;1.70;;;;;;;10.01;100.00;100292.81;7370194;19;20463;-40
2023/10/22 09:23:20;;;;;;;5.43;1.60;;;;;;;10.01;100.00;100295.38;7391700;19;20407;-41
2023/10/22 09:25:54;;;;;;;4.17;1.20;;;;;;;10.03;100.00;100309.19;7371074;19;20428;-41
2023/10/22 09:28:27;;;;;;;3.40;1.60;;;;;;;10.07;100.00;100316.22;7393777;19;20432;-42
2023/10/22 09:30:58;;;;;;;9.00;2.90;;;;;;;10.09;100.00;100324.88;7370015;19;20399;-43
2023/10/22 09:33:35;;;;;;;4.87;1.10;;;;;;;10.10;100.00;100328.34;7371900;19;20400;-42
2023/10/22 09:36:07;;;;;;;8.73;1.73;;;;;;;10.13;100.00;100342.25;7345420;19;20446;-41
2023/10/22 09:38:46;;;;;;;7.50;2.13;;;;;;;10.13;100.00;100364.53;7367831;19;20414;-42
2023/10/22 09:41:26;;;;;;;4.67;1.80;;;;;;;10.15;100.00;100390.38;7344199;19;22542;-43
2023/10/22 09:43:59;;;;;;;9.83;4.10;;;;;;;10.13;100.00;100424.72;7380786;19;20458;-40
2023/10/22 09:46:32;;;;;;;28.83;12.13;;;;;;;10.15;100.00;100447.97;7369450;19;20431;-42
2023/10/22 09:49:03;;;;;;;8.17;2.33;;;;;;;10.21;100.00;100460.22;7391921;19;20419;-41
2023/10/22 09:51:37;;;;;;;12.40;6.47;;;;;;;10.27;100.00;100468.19;7368285;19;20415;-41
2023/10/22 09:54:09;;;;;;;7.47;3.70;;;;;;;10.28;100.00;100469.97;7390738;19;20447;-40
2023/10/22 09:56:48;;;;;;;8.77;3.40;;;;;;;10.28;100.00;100485.44;7369125;19;20440;-40
2023/10/22 09:59:22;;;;;;;14.13;6.30;;;;;;;10.35;100.00;100497.72;7391419;19;20432;-41
2023/10/22 10:01:52;;;;;;;3.80;1.60;;;;;;;10.35;100.00;100497.72;7368329;19;20422;-40
2023/10/22 10:04:22;;;;;;;5.57;1.80;;;;;;;10.32;100.00;100497.63;7392297;19;20453;-39
2023/10/22 10:06:53;;;;;;;3.43;1.57;;;;;;;10.29;100.00;100501.78;7369590;19;20460;-41
2023/10/22 10:09:23;;;;;;;3.10;1.47;;;;;;;10.30;100.00;100503.53;7393441;19;20400;-42
2023/10/22 10:11:56;;;;;;;6.03;1.60;;;;;;;10.30;100.00;100519.88;7368378;19;20901;-41
2023/10/22 10:14:44;;;;;;;4.90;1.90;;;;;;;10.22;100.00;100522.19;7389056;19;20443;-40
2023/10/22 10:17:15;;;;;;;2.70;1.50;;;;;;;10.18;100.00;100527.13;7369297;19;20463;-41
2023/10/22 10:19:47;;;;;;;2.83;1.37;;;;;;;10.10;100.00;100540.59;7391470;19;20416;-41
2023/10/22 10:22:41;;;;;;;6.17;1.97;;;;;;;10.05;100.00;100539.53;7371016;19;20490;-40
2023/10/22 10:25:31;;;;;;;3.97;1.70;;;;;;;10.04;100.00;100532.63;7374638;19;21002;-40
2023/10/22 10:28:08;;;;;;;3.53;2.70;;;;;;;10.05;100.00;100531.78;7397505;19;20414;-40
2023/10/22 10:30:40;;;;;;;3.67;2.00;;;;;;;10.01;100.00;100522.19;7375004;19;20946;-41
2023/10/22 10:33:14;;;;;;;3.80;2.00;;;;;;;9.99;100.00;100513.50;7396388;19;20428;-40
2023/10/22 10:35:47;;;;;;;3.23;2.00;;;;;;;9.98;100.00;100511.75;7375245;19;20811;-42
2023/10/22 10:38:22;;;;;;;3.40;1.67;;;;;;;9.98;100.00;100511.75;7394598;19;20468;-40
2023/10/22 10:40:53;;;;;;;3.30;2.17;;;;;;;10.00;100.00;100494.63;7375388;19;20505;-40
2023/10/22 10:44:01;;;;;;;5.00;2.30;;;;;;;10.00;100.00;100497.22;7395210;19;20399;-40
2023/10/22 10:46:32;;;;;;;5.17;1.90;;;;;;;10.01;100.00;100486.13;7374591;19;20459;-42
2023/10/22 10:49:02;;;;;;;5.30;2.70;;;;;;;10.02;100.00;100493.03;7396763;19;20415;-41
2023/10/22 10:51:31;;;;;;;14.40;7.30;;;;;;;10.02;100.00;100477.56;7373768;19;20429;-42
2023/10/22 10:54:17;;;;;;;4.13;2.87;;;;;;;10.02;100.00;100469.81;7396626;19;20470;-41
2023/10/22 10:56:49;;;;;;;7.00;2.93;;;;;;;10.01;100.00;100450.03;7374636;19;20501;-41
2023/10/22 10:59:32;;;;;;;4.77;2.20;;;;;;;10.05;100.00;100435.56;7396584;19;20404;-41
2023/10/22 11:02:12;;;;;;;8.37;3.47;;;;;;;10.04;100.00;100419.19;7374592;19;20514;-41
2023/10/22 11:04:47;;;;;;;11.90;3.63;;;;;;;10.03;100.00;100399.41;7397012;19;20451;-41
2023/10/22 11:07:16;;;;;;;4.03;2.60;;;;;;;10.02;100.00;100384.78;7371938;19;20429;-42
2023/10/22 11:09:56;;;;;;;3.30;2.33;;;;;;;10.04;100.00;100357.34;7398054;19;20411;-41
2023/10/22 11:12:26;;;;;;;5.73;2.53;;;;;;;10.06;100.00;100358.28;7374536;19;20423;-48
2023/10/22 11:14:58;;;;;;;3.70;2.00;;;;;;;10.08;100.00;100343.75;7397629;19;20447;-41
2023/10/22 11:17:28;;;;;;;4.60;2.00;;;;;;;10.09;100.00;100340.34;7374861;19;20512;-42
2023/10/22 11:19:58;;;;;;;4.17;2.33;;;;;;;10.15;100.00;100328.53;7398888;19;20627;-42
2023/10/22 11:22:27;;;;;;;3.27;2.20;;;;;;;10.18;100.00;100328.63;7367889;19;20427;-42
2023/10/22 11:24:58;;;;;;;3.13;2.30;;;;;;;10.21;100.00;100337.34;7395000;19;20443;-41
2023/10/22 11:27:28;;;;;;;4.30;2.30;;;;;;;10.22;100.00;100357.16;7372982;19;20498;-43
2023/10/22 11:30:00;;;;;;;9.27;3.50;;;;;;;10.27;100.00;100367.66;7395829;19;20411;-41
2023/10/22 11:32:30;;;;;;;4.17;2.73;;;;;;;10.28;100.00;100387.44;7372436;19;20423;-42
2023/10/22 11:35:02;;;;;;;9.50;4.37;;;;;;;10.30;100.00;100429.63;7396784;19;20451;-41
2023/10/22 11:37:36;;;;;;;6.90;3.50;;;;;;;10.31;100.00;100454.59;7374746;19;20447;-41
2023/10/22 11:40:28;;;;;;;10.43;5.53;;;;;;;10.35;100.00;100484.84;7396488;19;20514;-43